KFWN

Sussex Airport

Sussex, New Jersey, USA
METAR KFWN 191453Z AUTO 04009G14KT 10SM OVC026 22/17 A3001 RMK AO2 SLP159 T02170172 51013
Observed Flight Rules
Aug-19 @ 14:53 UTC (44 minutes ago) Marginal Visual Flight Rules
Wind Visibility Clouds
40° at 9 knots
 Gusting to 14 knots
10 miles
  • Overcast at 2,600' AGL
Temperatures Readings
Current 22°C / 72°F
Dewpoint 17°C / 63°F
Humidity 73%
Altimeter 30.01" Hg
Pressure 1015.9 hPa
Elevation 133
METAR KFWN 191453Z AUTO 04009G14KT 10SM OVC026 22/17 A3001 RMK AO2 SLP159 T02170172 51013
Observed Flight Rules
Aug-19 @ 14:53 UTC
(44 minutes ago)
MVFR
Wind Visibility
40° at 9 knots
 Gusting to 14 knots
10 miles
Clouds
  • Overcast at 2,600' AGL
Temperature Dewpoint
22°C / 72°F 17°C / 63°F
Humidity Altimeter Pressure
73% 30.01" Hg 1015.9 hPa